Greenock MRCC, United Kingdom

3:55 PM GMT on February 28, 2015 (GMT +0000)
Rankin Park | Change Station
CLOSE
Current Station
Personal Weather Station
Location: Greenock,
Elevation: 200 ft
Nearby Weather Stations

Elev 200 ft 55.94 °N, 4.78 °W | Updated 29 seconds ago

Overcast
Overcast
43.2 °F
Feels Like 38 °F
N
9.8
Wind Variable Wind from West
Gusts 15.0 mph

Today
High -- | Low -- °F
--% Chance of Precip.
Yesterday
High -- | Low -- °F
Precip. -- in
7:14 AM 5:50 PM
Waxing Gibbous, 78% visible
Pressure 29.21 in
Visibility 3.1 miles
Clouds Mostly Cloudy 1400 ft
Windchill 38 °F
Dew Point 38 °F
Humidity 82%
Rainfall 0.00 in
Snow Depth Not available.
UV 0.0 out of 12
Pollen Not available.
Air Quality Not available.
Flu Activity Not available.
METAR EGPF 281550Z AUTO 19013KT 150V210 5000 -RA BKN014/// //////CB 07/05 Q0989 RERA

More Conditions Fewer Conditions

Pressure 29.21 in
Visibility 3.1 miles
Clouds Mostly Cloudy 1400 ft
Windchill 38 °F
Dew Point 38 °F
Humidity 82%
Rainfall 0.00 in
Snow Depth Not available.
UV 0.0 out of 12
Pollen Not available.
Air Quality Not available.
Flu Activity Not available.
METAR EGPF 281550Z AUTO 19013KT 150V210 5000 -RA BKN014/// //////CB 07/05 Q0989 RERA

More Conditions Fewer Conditions

10-Day Weather Forecast

Almanac

Astronomy

Feb. 28, 2015 Rise Set
Actual Time
Civil Twilight
Nautical Twilight
Astronomical Twilight
Moon
Length of Visible Light
Length of Day
Tomorrow will be .
, % of the Moon is Illuminated

Today's Extremes

Country Highs Country Lows

Community

WunderPhotos

Upload Photos

1,801,055 photos uploaded!

WunderBlogs® & News

Nearby

Air Quality

  Air Quality AQ Index Pollutant
Not available.

Snow Depth

Station Depth Elevation

Earthquake Activity

City Distance Mag. Time & Date
Minimum magnitude displayed is 2.5.

Coastal Water Temperatures

Place Temperature

Nearby Weather Stations